sensor_id;sensor_type;location;lat;lon;timestamp;pressure;altitude;pressure_sealevel;temperature;humidity
21821;BME280;11073;48.586;12.066;2023-02-01T00:02:05;96919.09;;;4.38;65.35
21821;BME280;11073;48.586;12.066;2023-02-01T00:04:55;96911.88;;;4.38;65.30
21821;BME280;11073;48.586;12.066;2023-02-01T00:07:47;96907.16;;;4.40;65.44
21821;BME280;11073;48.586;12.066;2023-02-01T00:10:36;96909.66;;;4.42;65.48
21821;BME280;11073;48.586;12.066;2023-02-01T00:13:29;96894.69;;;4.33;65.57
21821;BME280;11073;48.586;12.066;2023-02-01T00:16:20;96905.22;;;4.34;65.38
21821;BME280;11073;48.586;12.066;2023-02-01T00:19:12;96891.00;;;4.34;65.52
21821;BME280;11073;48.586;12.066;2023-02-01T00:22:02;96881.97;;;4.35;65.65
21821;BME280;11073;48.586;12.066;2023-02-01T00:24:51;96873.31;;;4.39;65.66
21821;BME280;11073;48.586;12.066;2023-02-01T00:27:40;96868.34;;;4.36;65.79
21821;BME280;11073;48.586;12.066;2023-02-01T00:30:30;96859.72;;;4.41;65.89
21821;BME280;11073;48.586;12.066;2023-02-01T00:33:20;96887.13;;;4.36;65.77
21821;BME280;11073;48.586;12.066;2023-02-01T00:36:10;96881.50;;;4.31;66.04
21821;BME280;11073;48.586;12.066;2023-02-01T00:38:59;96876.50;;;4.28;66.07
21821;BME280;11073;48.586;12.066;2023-02-01T00:41:49;96887.25;;;4.28;66.22
21821;BME280;11073;48.586;12.066;2023-02-01T00:44:38;96883.53;;;4.29;66.33
21821;BME280;11073;48.586;12.066;2023-02-01T00:47:28;96885.94;;;4.24;66.33
21821;BME280;11073;48.586;12.066;2023-02-01T00:50:18;96879.34;;;4.27;66.53
21821;BME280;11073;48.586;12.066;2023-02-01T00:53:08;96880.56;;;4.24;66.62
21821;BME280;11073;48.586;12.066;2023-02-01T00:55:57;96884.28;;;4.23;66.67
21821;BME280;11073;48.586;12.066;2023-02-01T00:58:47;96879.03;;;4.15;66.75
21821;BME280;11073;48.586;12.066;2023-02-01T01:01:36;96861.56;;;4.04;66.85
21821;BME280;11073;48.586;12.066;2023-02-01T01:04:27;96886.69;;;4.18;66.94
21821;BME280;11073;48.586;12.066;2023-02-01T01:07:16;96875.13;;;4.18;67.02
21821;BME280;11073;48.586;12.066;2023-02-01T01:10:06;96869.56;;;4.19;66.96
21821;BME280;11073;48.586;12.066;2023-02-01T01:12:55;96862.00;;;4.23;67.01
21821;BME280;11073;48.586;12.066;2023-02-01T01:15:45;96856.84;;;4.21;67.14
21821;BME280;11073;48.586;12.066;2023-02-01T01:18:34;96849.81;;;4.20;67.02
21821;BME280;11073;48.586;12.066;2023-02-01T01:21:25;96852.13;;;4.23;67.16
21821;BME280;11073;48.586;12.066;2023-02-01T01:24:15;96847.97;;;4.21;67.21
21821;BME280;11073;48.586;12.066;2023-02-01T01:27:04;96846.25;;;4.13;67.29
21821;BME280;11073;48.586;12.066;2023-02-01T01:29:53;96863.38;;;4.19;67.27
21821;BME280;11073;48.586;12.066;2023-02-01T01:32:43;96841.88;;;4.12;67.22
21821;BME280;11073;48.586;12.066;2023-02-01T01:35:32;96850.81;;;4.19;67.28
21821;BME280;11073;48.586;12.066;2023-02-01T01:38:22;96836.78;;;4.17;67.38
21821;BME280;11073;48.586;12.066;2023-02-01T01:41:14;96840.94;;;4.20;67.41
21821;BME280;11073;48.586;12.066;2023-02-01T01:44:05;96848.34;;;4.18;67.41
21821;BME280;11073;48.586;12.066;2023-02-01T01:46:55;96847.50;;;4.17;67.53
21821;BME280;11073;48.586;12.066;2023-02-01T01:49:45;96863.88;;;4.22;67.65
21821;BME280;11073;48.586;12.066;2023-02-01T01:52:34;96859.53;;;4.21;67.60
21821;BME280;11073;48.586;12.066;2023-02-01T01:55:31;96856.06;;;4.27;67.77
21821;BME280;11073;48.586;12.066;2023-02-01T01:58:23;96862.09;;;4.29;67.63
21821;BME280;11073;48.586;12.066;2023-02-01T02:01:14;96858.75;;;4.27;67.78
21821;BME280;11073;48.586;12.066;2023-02-01T02:04:04;96844.72;;;4.25;67.78
21821;BME280;11073;48.586;12.066;2023-02-01T02:06:57;96840.19;;;4.26;67.89
21821;BME280;11073;48.586;12.066;2023-02-01T02:09:48;96838.16;;;4.28;67.84
21821;BME280;11073;48.586;12.066;2023-02-01T02:12:49;96850.34;;;4.30;67.93
21821;BME280;11073;48.586;12.066;2023-02-01T02:15:43;96827.38;;;4.21;67.95
21821;BME280;11073;48.586;12.066;2023-02-01T02:18:39;96827.44;;;4.28;68.07
21821;BME280;11073;48.586;12.066;2023-02-01T02:21:42;96818.50;;;4.21;68.05
21821;BME280;11073;48.586;12.066;2023-02-01T02:28:01;96835.66;;;4.26;68.22
21821;BME280;11073;48.586;12.066;2023-02-01T02:31:19;96828.25;;;4.28;68.33
21821;BME280;11073;48.586;12.066;2023-02-01T02:34:18;96831.13;;;4.27;68.32
21821;BME280;11073;48.586;12.066;2023-02-01T02:37:13;96827.81;;;4.25;68.42
21821;BME280;11073;48.586;12.066;2023-02-01T02:40:13;96829.47;;;4.26;68.35
21821;BME280;11073;48.586;12.066;2023-02-01T02:43:10;96815.03;;;4.27;68.46
21821;BME280;11073;48.586;12.066;2023-02-01T02:46:22;96809.03;;;4.25;68.41
21821;BME280;11073;48.586;12.066;2023-02-01T02:49:35;96813.56;;;4.24;68.49
21821;BME280;11073;48.586;12.066;2023-02-01T02:52:28;96822.84;;;4.22;68.48
21821;BME280;11073;48.586;12.066;2023-02-01T02:55:37;96812.13;;;4.22;68.55
21821;BME280;11073;48.586;12.066;2023-02-01T02:58:28;96802.56;;;4.19;68.56
21821;BME280;11073;48.586;12.066;2023-02-01T03:01:36;96804.44;;;4.19;68.62
21821;BME280;11073;48.586;12.066;2023-02-01T03:04:46;96797.06;;;4.21;68.56
21821;BME280;11073;48.586;12.066;2023-02-01T03:07:53;96793.53;;;4.20;68.62
21821;BME280;11073;48.586;12.066;2023-02-01T03:10:48;96792.66;;;4.13;68.66
21821;BME280;11073;48.586;12.066;2023-02-01T03:13:46;96801.75;;;4.19;68.55
21821;BME280;11073;48.586;12.066;2023-02-01T03:16:41;96792.69;;;4.20;68.63
21821;BME280;11073;48.586;12.066;2023-02-01T03:19:35;96790.00;;;4.20;68.54
21821;BME280;11073;48.586;12.066;2023-02-01T03:22:28;96791.22;;;4.17;68.61
21821;BME280;11073;48.586;12.066;2023-02-01T03:25:22;96798.25;;;4.18;68.68
21821;BME280;11073;48.586;12.066;2023-02-01T03:28:12;96790.66;;;4.22;68.65
21821;BME280;11073;48.586;12.066;2023-02-01T03:31:02;96783.38;;;4.15;68.69
21821;BME280;11073;48.586;12.066;2023-02-01T03:33:51;96794.53;;;4.19;68.63
21821;BME280;11073;48.586;12.066;2023-02-01T03:36:46;96790.00;;;4.20;68.61
21821;BME280;11073;48.586;12.066;2023-02-01T03:39:43;96755.41;;;4.03;68.50
21821;BME280;11073;48.586;12.066;2023-02-01T03:42:37;96755.81;;;4.00;68.49
21821;BME280;11073;48.586;12.066;2023-02-01T03:45:29;96769.84;;;4.24;68.56
21821;BME280;11073;48.586;12.066;2023-02-01T03:48:23;96784.09;;;4.24;68.42
21821;BME280;11073;48.586;12.066;2023-02-01T03:51:14;96749.84;;;4.05;68.52
21821;BME280;11073;48.586;12.066;2023-02-01T03:54:05;96771.44;;;4.18;68.60
21821;BME280;11073;48.586;12.066;2023-02-01T03:56:59;96779.47;;;4.18;68.62
21821;BME280;11073;48.586;12.066;2023-02-01T03:59:50;96768.75;;;4.18;68.50
21821;BME280;11073;48.586;12.066;2023-02-01T04:02:39;96777.19;;;4.15;68.58
21821;BME280;11073;48.586;12.066;2023-02-01T04:05:29;96777.19;;;4.15;68.56
21821;BME280;11073;48.586;12.066;2023-02-01T04:08:27;96769.34;;;4.13;68.51
21821;BME280;11073;48.586;12.066;2023-02-01T04:11:16;96762.97;;;4.14;68.48
21821;BME280;11073;48.586;12.066;2023-02-01T04:14:07;96749.78;;;4.13;68.63
21821;BME280;11073;48.586;12.066;2023-02-01T04:16:57;96747.72;;;4.15;68.57
21821;BME280;11073;48.586;12.066;2023-02-01T04:19:46;96756.78;;;4.14;68.49
21821;BME280;11073;48.586;12.066;2023-02-01T04:22:36;96775.34;;;4.15;68.59
21821;BME280;11073;48.586;12.066;2023-02-01T04:25:25;96773.81;;;4.06;68.51
21821;BME280;11073;48.586;12.066;2023-02-01T04:28:15;96768.88;;;4.10;68.56
21821;BME280;11073;48.586;12.066;2023-02-01T04:31:05;96756.63;;;4.01;68.59
21821;BME280;11073;48.586;12.066;2023-02-01T04:33:55;96756.72;;;4.07;68.55
21821;BME280;11073;48.586;12.066;2023-02-01T04:36:46;96757.53;;;4.08;68.55
21821;BME280;11073;48.586;12.066;2023-02-01T04:39:34;96762.50;;;4.11;68.55
21821;BME280;11073;48.586;12.066;2023-02-01T04:42:24;96772.31;;;4.04;68.51
21821;BME280;11073;48.586;12.066;2023-02-01T04:45:12;96759.59;;;4.06;68.61
21821;BME280;11073;48.586;12.066;2023-02-01T04:48:03;96768.63;;;4.05;68.64
21821;BME280;11073;48.586;12.066;2023-02-01T04:50:53;96771.28;;;4.05;68.64
21821;BME280;11073;48.586;12.066;2023-02-01T04:53:42;96757.47;;;4.01;68.69
21821;BME280;11073;48.586;12.066;2023-02-01T04:56:32;96755.88;;;4.07;68.62
21821;BME280;11073;48.586;12.066;2023-02-01T04:59:22;96746.81;;;4.08;68.54
21821;BME280;11073;48.586;12.066;2023-02-01T05:02:12;96752.63;;;4.11;68.61
21821;BME280;11073;48.586;12.066;2023-02-01T05:05:02;96749.31;;;4.09;68.57
21821;BME280;11073;48.586;12.066;2023-02-01T05:07:51;96744.78;;;4.10;68.69
21821;BME280;11073;48.586;12.066;2023-02-01T05:10:40;96726.16;;;4.02;68.73
21821;BME280;11073;48.586;12.066;2023-02-01T05:13:29;96727.88;;;4.09;68.62
21821;BME280;11073;48.586;12.066;2023-02-01T05:16:35;96734.69;;;4.12;68.67
21821;BME280;11073;48.586;12.066;2023-02-01T05:19:25;96742.72;;;4.12;68.56
21821;BME280;11073;48.586;12.066;2023-02-01T05:22:15;96717.78;;;4.11;68.55
21821;BME280;11073;48.586;12.066;2023-02-01T05:25:04;96715.50;;;4.08;68.55
21821;BME280;11073;48.586;12.066;2023-02-01T05:27:55;96715.50;;;4.08;68.68
21821;BME280;11073;48.586;12.066;2023-02-01T05:30:43;96715.03;;;4.05;68.57
21821;BME280;11073;48.586;12.066;2023-02-01T05:33:33;96728.44;;;4.05;68.58
21821;BME280;11073;48.586;12.066;2023-02-01T05:36:22;96720.03;;;4.08;68.92
21821;BME280;11073;48.586;12.066;2023-02-01T05:39:12;96729.09;;;4.07;68.68
21821;BME280;11073;48.586;12.066;2023-02-01T05:42:00;96717.53;;;4.06;68.64
21821;BME280;11073;48.586;12.066;2023-02-01T05:44:49;96713.84;;;4.07;68.62
21821;BME280;11073;48.586;12.066;2023-02-01T05:47:38;96698.94;;;4.05;68.67
21821;BME280;11073;48.586;12.066;2023-02-01T05:50:27;96710.75;;;4.10;68.63
21821;BME280;11073;48.586;12.066;2023-02-01T05:53:17;96712.25;;;4.13;68.71
21821;BME280;11073;48.586;12.066;2023-02-01T05:56:07;96705.88;;;4.14;68.60
21821;BME280;11073;48.586;12.066;2023-02-01T05:58:56;96699.69;;;4.13;68.52
21821;BME280;11073;48.586;12.066;2023-02-01T06:01:46;96674.97;;;3.97;68.55
21821;BME280;11073;48.586;12.066;2023-02-01T06:04:35;96680.03;;;4.06;68.45
21821;BME280;11073;48.586;12.066;2023-02-01T06:07:24;96693.09;;;4.16;68.50
21821;BME280;11073;48.586;12.066;2023-02-01T06:10:16;96682.56;;;4.14;68.53
21821;BME280;11073;48.586;12.066;2023-02-01T06:13:07;96679.06;;;4.14;68.55
21821;BME280;11073;48.586;12.066;2023-02-01T06:15:56;96685.25;;;4.14;68.48
21821;BME280;11073;48.586;12.066;2023-02-01T06:18:45;96682.56;;;4.14;68.55
21821;BME280;11073;48.586;12.066;2023-02-01T06:21:35;96693.72;;;4.18;68.46
21821;BME280;11073;48.586;12.066;2023-02-01T06:24:23;96680.53;;;4.17;68.53
21821;BME280;11073;48.586;12.066;2023-02-01T06:27:12;96666.88;;;4.11;68.57
21821;BME280;11073;48.586;12.066;2023-02-01T06:30:05;96665.00;;;4.12;68.60
21821;BME280;11073;48.586;12.066;2023-02-01T06:32:54;96678.03;;;4.15;68.58
21821;BME280;11073;48.586;12.066;2023-02-01T06:35:43;96683.41;;;4.15;68.46
21821;BME280;11073;48.586;12.066;2023-02-01T06:38:33;96675.09;;;4.10;68.51
21821;BME280;11073;48.586;12.066;2023-02-01T06:41:23;96679.00;;;4.07;68.68
21821;BME280;11073;48.586;12.066;2023-02-01T06:44:16;96687.75;;;4.16;68.63
21821;BME280;11073;48.586;12.066;2023-02-01T06:47:06;96693.28;;;4.14;68.63
21821;BME280;11073;48.586;12.066;2023-02-01T06:49:55;96697.06;;;4.20;68.68
21821;BME280;11073;48.586;12.066;2023-02-01T06:52:45;96703.25;;;4.21;68.66
21821;BME280;11073;48.586;12.066;2023-02-01T06:55:34;96683.00;;;4.18;68.70
21821;BME280;11073;48.586;12.066;2023-02-01T06:58:23;96680.47;;;4.10;68.54
21821;BME280;11073;48.586;12.066;2023-02-01T07:01:13;96695.44;;;4.26;68.54
21821;BME280;11073;48.586;12.066;2023-02-01T07:04:03;96695.06;;;4.29;68.58
21821;BME280;11073;48.586;12.066;2023-02-01T07:06:52;96693.03;;;4.31;68.40
21821;BME280;11073;48.586;12.066;2023-02-01T07:09:41;96713.25;;;4.33;68.42
21821;BME280;11073;48.586;12.066;2023-02-01T07:12:30;96698.66;;;4.36;68.33
21821;BME280;11073;48.586;12.066;2023-02-01T07:15:19;96708.53;;;4.35;68.30
21821;BME280;11073;48.586;12.066;2023-02-01T07:18:11;96684.41;;;4.35;68.15
21821;BME280;11073;48.586;12.066;2023-02-01T07:21:03;96678.44;;;4.40;68.01
21821;BME280;11073;48.586;12.066;2023-02-01T07:23:52;96654.41;;;4.25;68.03
21821;BME280;11073;48.586;12.066;2023-02-01T07:26:40;96693.56;;;4.48;67.95
21821;BME280;11073;48.586;12.066;2023-02-01T07:29:29;96689.44;;;4.45;67.84
21821;BME280;11073;48.586;12.066;2023-02-01T07:32:18;96702.69;;;4.53;67.83
21821;BME280;11073;48.586;12.066;2023-02-01T07:35:07;96694.66;;;4.53;67.67
21821;BME280;11073;48.586;12.066;2023-02-01T07:37:58;96700.63;;;4.55;67.52
21821;BME280;11073;48.586;12.066;2023-02-01T07:40:46;96708.31;;;4.58;67.39
21821;BME280;11073;48.586;12.066;2023-02-01T07:43:36;96679.53;;;4.46;67.17
21821;BME280;11073;48.586;12.066;2023-02-01T07:46:24;96694.06;;;4.58;67.17
21821;BME280;11073;48.586;12.066;2023-02-01T07:49:13;96708.31;;;4.58;67.18
21821;BME280;11073;48.586;12.066;2023-02-01T07:52:02;96702.94;;;4.58;67.12
21821;BME280;11073;48.586;12.066;2023-02-01T07:54:52;96699.84;;;4.61;67.20
21821;BME280;11073;48.586;12.066;2023-02-01T07:57:40;96693.03;;;4.59;66.96
21821;BME280;11073;48.586;12.066;2023-02-01T08:00:29;96705.69;;;4.65;66.98
21821;BME280;11073;48.586;12.066;2023-02-01T08:03:36;96724.63;;;4.63;67.05
21821;BME280;11073;48.586;12.066;2023-02-01T08:06:25;96707.72;;;4.63;67.04
21821;BME280;11073;48.586;12.066;2023-02-01T08:09:14;96723.44;;;4.66;66.79
21821;BME280;11073;48.586;12.066;2023-02-01T08:12:05;96711.66;;;4.67;67.06
21821;BME280;11073;48.586;12.066;2023-02-01T08:14:54;96728.59;;;4.67;67.06
21821;BME280;11073;48.586;12.066;2023-02-01T08:17:46;96710.22;;;4.64;67.07
21821;BME280;11073;48.586;12.066;2023-02-01T08:20:35;96717.44;;;4.64;67.18
21821;BME280;11073;48.586;12.066;2023-02-01T08:23:25;96707.47;;;4.58;67.24
21821;BME280;11073;48.586;12.066;2023-02-01T08:26:16;96713.47;;;4.60;67.32
21821;BME280;11073;48.586;12.066;2023-02-01T08:29:08;96719.41;;;4.55;67.59
21821;BME280;11073;48.586;12.066;2023-02-01T08:31:58;96709.91;;;4.53;67.96
21821;BME280;11073;48.586;12.066;2023-02-01T08:34:47;96690.25;;;4.46;68.49
21821;BME280;11073;48.586;12.066;2023-02-01T08:37:36;96697.28;;;4.47;68.25
21821;BME280;11073;48.586;12.066;2023-02-01T08:40:25;96707.47;;;4.58;68.63
21821;BME280;11073;48.586;12.066;2023-02-01T08:43:14;96659.72;;;4.19;68.64
21821;BME280;11073;48.586;12.066;2023-02-01T08:46:39;96700.47;;;4.57;68.79
21821;BME280;11073;48.586;12.066;2023-02-01T08:49:34;96695.94;;;4.57;68.88
21821;BME280;11073;48.586;12.066;2023-02-01T08:52:26;96683.09;;;4.53;68.94
21821;BME280;11073;48.586;12.066;2023-02-01T08:55:18;96712.66;;;4.59;68.96
21821;BME280;11073;48.586;12.066;2023-02-01T08:58:40;96704.41;;;4.61;68.89
21821;BME280;11073;48.586;12.066;2023-02-01T09:02:00;96698.66;;;4.64;68.80
21821;BME280;11073;48.586;12.066;2023-02-01T09:04:55;96711.88;;;4.65;68.86
21821;BME280;11073;48.586;12.066;2023-02-01T09:08:05;96698.69;;;4.70;68.74
21821;BME280;11073;48.586;12.066;2023-02-01T09:11:12;96691.72;;;4.76;68.74
21821;BME280;11073;48.586;12.066;2023-02-01T09:14:02;96719.19;;;4.78;68.59
21821;BME280;11073;48.586;12.066;2023-02-01T09:17:39;96721.69;;;4.80;68.48
21821;BME280;11073;48.586;12.066;2023-02-01T09:20:29;96707.03;;;4.82;68.19
21821;BME280;11073;48.586;12.066;2023-02-01T09:23:17;96725.81;;;4.82;68.10
21821;BME280;11073;48.586;12.066;2023-02-01T09:26:08;96720.06;;;4.85;68.04
21821;BME280;11073;48.586;12.066;2023-02-01T09:29:01;96739.84;;;4.84;68.00
21821;BME280;11073;48.586;12.066;2023-02-01T09:31:50;96739.63;;;4.79;68.04
21821;BME280;11073;48.586;12.066;2023-02-01T09:34:52;96767.13;;;4.88;68.08
21821;BME280;11073;48.586;12.066;2023-02-01T09:37:40;96752.63;;;4.82;68.21
21821;BME280;11073;48.586;12.066;2023-02-01T09:40:29;96746.19;;;4.77;68.23
21821;BME280;11073;48.586;12.066;2023-02-01T09:43:26;96766.81;;;4.76;68.51
21821;BME280;11073;48.586;12.066;2023-02-01T09:46:22;96760.69;;;4.82;68.64
21821;BME280;11073;48.586;12.066;2023-02-01T09:49:16;96759.66;;;4.83;68.52
21821;BME280;11073;48.586;12.066;2023-02-01T09:52:10;96781.53;;;4.80;68.73
21821;BME280;11073;48.586;12.066;2023-02-01T09:55:03;96777.41;;;4.84;68.71
21821;BME280;11073;48.586;12.066;2023-02-01T09:57:56;96743.28;;;4.72;68.62
21821;BME280;11073;48.586;12.066;2023-02-01T10:00:50;96756.97;;;4.83;68.49
21821;BME280;11073;48.586;12.066;2023-02-01T10:03:40;96758.88;;;4.89;68.46
21821;BME280;11073;48.586;12.066;2023-02-01T10:06:45;96762.91;;;5.00;68.36
21821;BME280;11073;48.586;12.066;2023-02-01T10:09:50;96757.47;;;4.93;68.28
21821;BME280;11073;48.586;12.066;2023-02-01T10:12:53;96783.09;;;4.96;68.21
21821;BME280;11073;48.586;12.066;2023-02-01T10:15:55;96782.84;;;4.91;68.29
21821;BME280;11073;48.586;12.066;2023-02-01T10:19:10;96801.94;;;4.81;68.28
21821;BME280;11073;48.586;12.066;2023-02-01T10:22:08;96786.00;;;4.73;68.69
21821;BME280;11073;48.586;12.066;2023-02-01T10:25:04;96796.53;;;4.75;68.64
21821;BME280;11073;48.586;12.066;2023-02-01T10:27:56;96787.78;;;4.66;68.70
21821;BME280;11073;48.586;12.066;2023-02-01T10:30:48;96784.47;;;4.64;69.02
21821;BME280;11073;48.586;12.066;2023-02-01T10:33:41;96786.78;;;4.67;69.08
21821;BME280;11073;48.586;12.066;2023-02-01T10:36:34;96777.06;;;4.66;69.12
21821;BME280;11073;48.586;12.066;2023-02-01T10:39:24;96766.13;;;4.67;69.35
21821;BME280;11073;48.586;12.066;2023-02-01T10:42:14;96773.34;;;4.67;69.27
21821;BME280;11073;48.586;12.066;2023-02-01T10:45:11;96779.13;;;4.64;69.54
21821;BME280;11073;48.586;12.066;2023-02-01T11:26:48;96761.75;;;4.60;72.05
21821;BME280;11073;48.586;12.066;2023-02-01T11:34:36;96747.72;;;4.58;71.94
21821;BME280;11073;48.586;12.066;2023-02-01T11:37:40;96752.94;;;4.66;72.01
21821;BME280;11073;48.586;12.066;2023-02-01T11:40:48;96748.66;;;4.72;72.00
21821;BME280;11073;48.586;12.066;2023-02-01T11:44:21;96734.41;;;4.71;71.75
21821;BME280;11073;48.586;12.066;2023-02-01T11:47:54;96746.19;;;4.77;71.70
21821;BME280;11073;48.586;12.066;2023-02-01T12:10:05;96738.66;;;4.87;70.38
21821;BME280;11073;48.586;12.066;2023-02-01T12:18:02;96736.63;;;4.95;69.75
21821;BME280;11073;48.586;12.066;2023-02-01T12:21:35;96752.16;;;5.00;69.40
21821;BME280;11073;48.586;12.066;2023-02-01T12:25:20;96753.00;;;5.01;69.19
21821;BME280;11073;48.586;12.066;2023-02-01T12:28:42;96648.75;;;4.41;69.11
21821;BME280;11073;48.586;12.066;2023-02-01T12:31:47;96713.06;;;4.91;69.16
21821;BME280;11073;48.586;12.066;2023-02-01T12:35:01;96719.91;;;4.93;69.23
21821;BME280;11073;48.586;12.066;2023-02-01T12:38:02;96712.44;;;4.89;69.31
21821;BME280;11073;48.586;12.066;2023-02-01T12:41:05;96728.28;;;4.84;69.22
21821;BME280;11073;48.586;12.066;2023-02-01T12:43:58;96728.06;;;4.79;69.27
21821;BME280;11073;48.586;12.066;2023-02-01T12:46:52;96735.28;;;4.78;69.20
21821;BME280;11073;48.586;12.066;2023-02-01T12:49:56;96712.84;;;4.86;69.35
21821;BME280;11073;48.586;12.066;2023-02-01T12:52:57;96707.91;;;4.89;69.26
21821;BME280;11073;48.586;12.066;2023-02-01T12:56:10;96715.59;;;4.99;69.13
21821;BME280;11073;48.586;12.066;2023-02-01T12:59:19;96709.44;;;5.05;69.23
21821;BME280;11073;48.586;12.066;2023-02-01T13:02:15;96716.97;;;5.16;68.88
21821;BME280;11073;48.586;12.066;2023-02-01T13:05:14;96712.16;;;5.12;68.68
21821;BME280;11073;48.586;12.066;2023-02-01T13:08:07;96700.41;;;5.13;68.62
21821;BME280;11073;48.586;12.066;2023-02-01T13:11:00;96703.28;;;5.11;68.28
21821;BME280;11073;48.586;12.066;2023-02-01T13:13:58;96706.81;;;5.12;68.42
21821;BME280;11073;48.586;12.066;2023-02-01T13:16:52;96694.22;;;5.12;68.06
21821;BME280;11073;48.586;12.066;2023-02-01T13:19:49;96702.72;;;5.16;68.00
21821;BME280;11073;48.586;12.066;2023-02-01T13:22:42;96688.25;;;5.17;67.78
21821;BME280;11073;48.586;12.066;2023-02-01T13:25:37;96691.31;;;5.07;67.54
21821;BME280;11073;48.586;12.066;2023-02-01T13:28:30;96701.66;;;5.10;67.40
21821;BME280;11073;48.586;12.066;2023-02-01T13:35:01;96690.50;;;5.13;66.96
21821;BME280;11073;48.586;12.066;2023-02-01T13:38:03;96697.19;;;5.24;66.78
21821;BME280;11073;48.586;12.066;2023-02-01T13:41:06;96693.88;;;5.22;66.60
21821;BME280;11073;48.586;12.066;2023-02-01T13:44:05;96671.53;;;5.15;66.35
21821;BME280;11073;48.586;12.066;2023-02-01T13:47:01;96688.84;;;5.12;65.93
21821;BME280;11073;48.586;12.066;2023-02-01T13:49:53;96675.66;;;5.17;65.76
21821;BME280;11073;48.586;12.066;2023-02-01T13:52:44;96654.72;;;4.99;65.48
21821;BME280;11073;48.586;12.066;2023-02-01T13:55:40;96703.53;;;5.16;65.43
21821;BME280;11073;48.586;12.066;2023-02-01T13:58:33;96699.56;;;5.12;65.05
21821;BME280;11073;48.586;12.066;2023-02-01T14:01:43;96674.34;;;5.07;64.85
21821;BME280;11073;48.586;12.066;2023-02-01T14:04:48;96679.56;;;5.08;64.62
21821;BME280;11073;48.586;12.066;2023-02-01T14:08:02;96681.78;;;5.05;64.48
21821;BME280;11073;48.586;12.066;2023-02-01T14:10:58;96665.06;;;5.03;64.36
21821;BME280;11073;48.586;12.066;2023-02-01T14:13:47;96686.91;;;4.99;64.26
21821;BME280;11073;48.586;12.066;2023-02-01T14:16:36;96690.88;;;5.04;64.09
21821;BME280;11073;48.586;12.066;2023-02-01T14:19:27;96683.22;;;5.01;64.07
21821;BME280;11073;48.586;12.066;2023-02-01T14:22:33;96689.47;;;5.08;63.75
21821;BME280;11073;48.586;12.066;2023-02-01T14:25:23;96692.31;;;5.06;63.76
21821;BME280;11073;48.586;12.066;2023-02-01T14:28:23;96685.25;;;4.98;63.72
21821;BME280;11073;48.586;12.066;2023-02-01T14:34:33;96664.81;;;4.97;63.59
21821;BME280;11073;48.586;12.066;2023-02-01T14:37:25;96667.75;;;5.03;63.65
21821;BME280;11073;48.586;12.066;2023-02-01T14:40:19;96674.97;;;5.02;63.70
21821;BME280;11073;48.586;12.066;2023-02-01T14:43:09;96687.34;;;5.03;63.40
21821;BME280;11073;48.586;12.066;2023-02-01T14:46:18;96692.31;;;5.06;63.50
21821;BME280;11073;48.586;12.066;2023-02-01T14:49:07;96701.84;;;5.09;63.46
21821;BME280;11073;48.586;12.066;2023-02-01T14:51:56;96697.69;;;5.06;63.25
21821;BME280;11073;48.586;12.066;2023-02-01T14:54:49;96682.81;;;5.04;63.26
21821;BME280;11073;48.586;12.066;2023-02-01T14:57:40;96688.34;;;4.95;63.35
21821;BME280;11073;48.586;12.066;2023-02-01T15:00:33;96687.75;;;5.00;63.25
21821;BME280;11073;48.586;12.066;2023-02-01T15:03:31;96686.09;;;4.99;63.13
21821;BME280;11073;48.586;12.066;2023-02-01T15:06:30;96688.75;;;4.99;63.05
21821;BME280;11073;48.586;12.066;2023-02-01T15:09:25;96682.19;;;5.02;63.00
21821;BME280;11073;48.586;12.066;2023-02-01T15:12:16;96688.63;;;5.07;62.95
21821;BME280;11073;48.586;12.066;2023-02-01T15:15:13;96679.50;;;5.02;62.92
21821;BME280;11073;48.586;12.066;2023-02-01T15:18:16;96703.00;;;4.99;62.81
21821;BME280;11073;48.586;12.066;2023-02-01T15:21:16;96684.44;;;4.98;62.84
21821;BME280;11073;48.586;12.066;2023-02-01T15:24:23;96693.31;;;4.98;62.88
21821;BME280;11073;48.586;12.066;2023-02-01T15:27:12;96698.66;;;4.98;62.79
21821;BME280;11073;48.586;12.066;2023-02-01T15:30:05;96697.22;;;4.96;62.86
21821;BME280;11073;48.586;12.066;2023-02-01T15:33:07;96699.50;;;4.99;62.81
21821;BME280;11073;48.586;12.066;2023-02-01T15:36:07;96707.69;;;4.91;62.79
21821;BME280;11073;48.586;12.066;2023-02-01T15:39:20;96726.72;;;4.96;62.73
21821;BME280;11073;48.586;12.066;2023-02-01T15:42:12;96708.09;;;4.88;62.96
21821;BME280;11073;48.586;12.066;2023-02-01T15:45:04;96708.34;;;4.93;62.72
21821;BME280;11073;48.586;12.066;2023-02-01T15:47:54;96702.13;;;4.92;62.73
21821;BME280;11073;48.586;12.066;2023-02-01T15:50:46;96733.09;;;4.88;62.78
21821;BME280;11073;48.586;12.066;2023-02-01T15:53:35;96723.59;;;4.86;62.81
21821;BME280;11073;48.586;12.066;2023-02-01T15:56:26;96702.13;;;4.86;62.91
21821;BME280;11073;48.586;12.066;2023-02-01T15:59:17;96708.31;;;4.86;62.86
21821;BME280;11073;48.586;12.066;2023-02-01T16:02:26;96699.84;;;4.89;62.90
21821;BME280;11073;48.586;12.066;2023-02-01T16:05:37;96714.72;;;4.85;62.86
21821;BME280;11073;48.586;12.066;2023-02-01T16:08:29;96709.34;;;4.85;62.90
21821;BME280;11073;48.586;12.066;2023-02-01T16:11:23;96706.66;;;4.85;62.91
21821;BME280;11073;48.586;12.066;2023-02-01T16:14:13;96704.34;;;4.82;62.94
21821;BME280;11073;48.586;12.066;2023-02-01T16:17:02;96699.19;;;4.81;63.01
21821;BME280;11073;48.586;12.066;2023-02-01T16:19:51;96704.75;;;4.79;62.98
21821;BME280;11073;48.586;12.066;2023-02-01T16:22:40;96711.53;;;4.75;63.02
21821;BME280;11073;48.586;12.066;2023-02-01T16:25:30;96701.56;;;4.69;62.98
21821;BME280;11073;48.586;12.066;2023-02-01T16:28:19;96697.53;;;4.80;63.14
21821;BME280;11073;48.586;12.066;2023-02-01T16:31:11;96710.13;;;4.79;63.16
21821;BME280;11073;48.586;12.066;2023-02-01T16:34:11;96709.09;;;4.80;63.23
21821;BME280;11073;48.586;12.066;2023-02-01T16:37:02;96711.16;;;4.78;63.28
21821;BME280;11073;48.586;12.066;2023-02-01T16:39:52;96718.53;;;4.76;63.10
21821;BME280;11073;48.586;12.066;2023-02-01T16:42:43;96714.22;;;4.75;63.13